Terminal Aerodrome Forecast
Issued by NWS

Home | Current Version | Previous Version | Text Only | Print | Product List | Glossary Off
Versions: 1 2 3 4 5 6 7 8 9 10 11 12 13 14 15 16 17 18 19

000
FTUS43 KICT 281700
TAFHUT
TAF
KHUT 281720Z 2818/2918 17014G21KT P6SM SCT070 BKN120
     FM282300 17011KT P6SM VCTS SCT060CB BKN090
      TEMPO 2900/2904 VRB15G30KT 3SM TSRA OVC050CB
     FM290900 22007KT P6SM BKN120=

USA.gov is the U.S. government's official web portal to all federal, state and local government web resources and services.